sensor_id;sensor_type;location;lat;lon;timestamp;P1;durP1;ratioP1;P2;durP2;ratioP2
4021;SDS011;2025;48.260;16.432;2023-08-31T00:02:03;5.05;;;0.57;;
4021;SDS011;2025;48.260;16.432;2023-08-31T00:04:30;4.22;;;0.73;;
4021;SDS011;2025;48.260;16.432;2023-08-31T00:06:57;4.88;;;1.15;;
4021;SDS011;2025;48.260;16.432;2023-08-31T00:09:24;3.60;;;0.50;;
4021;SDS011;2025;48.260;16.432;2023-08-31T00:11:51;4.25;;;0.70;;
4021;SDS011;2025;48.260;16.432;2023-08-31T00:14:20;3.08;;;0.82;;
4021;SDS011;2025;48.260;16.432;2023-08-31T00:16:48;3.38;;;0.70;;
4021;SDS011;2025;48.260;16.432;2023-08-31T00:19:15;3.20;;;0.77;;
4021;SDS011;2025;48.260;16.432;2023-08-31T00:21:43;4.47;;;0.70;;
4021;SDS011;2025;48.260;16.432;2023-08-31T00:24:10;3.53;;;0.70;;
4021;SDS011;2025;48.260;16.432;2023-08-31T00:26:37;3.42;;;0.75;;
4021;SDS011;2025;48.260;16.432;2023-08-31T00:29:05;4.85;;;0.70;;
4021;SDS011;2025;48.260;16.432;2023-08-31T00:31:35;3.38;;;0.70;;
4021;SDS011;2025;48.260;16.432;2023-08-31T00:34:03;4.03;;;0.50;;
4021;SDS011;2025;48.260;16.432;2023-08-31T00:36:31;4.75;;;0.70;;
4021;SDS011;2025;48.260;16.432;2023-08-31T00:38:58;3.40;;;0.60;;
4021;SDS011;2025;48.260;16.432;2023-08-31T00:41:31;3.55;;;0.90;;
4021;SDS011;2025;48.260;16.432;2023-08-31T00:43:58;5.68;;;0.68;;
4021;SDS011;2025;48.260;16.432;2023-08-31T00:46:25;4.05;;;0.70;;
4021;SDS011;2025;48.260;16.432;2023-08-31T00:48:55;4.13;;;0.90;;
4021;SDS011;2025;48.260;16.432;2023-08-31T00:51:23;2.95;;;0.57;;
4021;SDS011;2025;48.260;16.432;2023-08-31T00:53:50;3.45;;;0.60;;
4021;SDS011;2025;48.260;16.432;2023-08-31T00:56:19;3.42;;;0.68;;
4021;SDS011;2025;48.260;16.432;2023-08-31T00:58:46;3.67;;;0.85;;
4021;SDS011;2025;48.260;16.432;2023-08-31T01:01:15;3.08;;;0.70;;
4021;SDS011;2025;48.260;16.432;2023-08-31T01:03:51;4.38;;;0.80;;
4021;SDS011;2025;48.260;16.432;2023-08-31T01:06:30;7.30;;;0.80;;
4021;SDS011;2025;48.260;16.432;2023-08-31T01:09:07;4.45;;;1.42;;
4021;SDS011;2025;48.260;16.432;2023-08-31T01:11:45;3.88;;;0.77;;
4021;SDS011;2025;48.260;16.432;2023-08-31T01:14:21;4.88;;;2.90;;
4021;SDS011;2025;48.260;16.432;2023-08-31T01:16:51;3.90;;;0.68;;
4021;SDS011;2025;48.260;16.432;2023-08-31T01:19:24;3.25;;;0.60;;
4021;SDS011;2025;48.260;16.432;2023-08-31T01:22:06;5.22;;;0.90;;
4021;SDS011;2025;48.260;16.432;2023-08-31T01:24:39;4.15;;;0.88;;
4021;SDS011;2025;48.260;16.432;2023-08-31T01:27:07;3.75;;;0.93;;
4021;SDS011;2025;48.260;16.432;2023-08-31T01:29:34;3.60;;;0.80;;
4021;SDS011;2025;48.260;16.432;2023-08-31T01:32:04;4.03;;;1.02;;
4021;SDS011;2025;48.260;16.432;2023-08-31T01:34:32;3.83;;;1.02;;
4021;SDS011;2025;48.260;16.432;2023-08-31T01:37:00;3.50;;;0.60;;
4021;SDS011;2025;48.260;16.432;2023-08-31T01:39:33;4.47;;;0.80;;
4021;SDS011;2025;48.260;16.432;2023-08-31T01:42:08;3.63;;;0.95;;
4021;SDS011;2025;48.260;16.432;2023-08-31T01:44:39;4.85;;;0.88;;
4021;SDS011;2025;48.260;16.432;2023-08-31T01:47:06;4.40;;;0.80;;
4021;SDS011;2025;48.260;16.432;2023-08-31T01:49:37;3.50;;;0.90;;
4021;SDS011;2025;48.260;16.432;2023-08-31T01:52:04;4.20;;;0.93;;
4021;SDS011;2025;48.260;16.432;2023-08-31T01:54:31;4.45;;;1.05;;
4021;SDS011;2025;48.260;16.432;2023-08-31T01:56:59;4.00;;;0.82;;
4021;SDS011;2025;48.260;16.432;2023-08-31T01:59:29;4.63;;;1.25;;
4021;SDS011;2025;48.260;16.432;2023-08-31T02:01:56;4.35;;;1.00;;
4021;SDS011;2025;48.260;16.432;2023-08-31T02:04:23;5.18;;;1.23;;
4021;SDS011;2025;48.260;16.432;2023-08-31T02:06:50;4.57;;;1.63;;
4021;SDS011;2025;48.260;16.432;2023-08-31T02:09:17;3.78;;;1.23;;
4021;SDS011;2025;48.260;16.432;2023-08-31T02:11:43;4.40;;;1.50;;
4021;SDS011;2025;48.260;16.432;2023-08-31T02:14:10;4.22;;;1.40;;
4021;SDS011;2025;48.260;16.432;2023-08-31T02:16:39;4.40;;;1.42;;
4021;SDS011;2025;48.260;16.432;2023-08-31T02:19:06;5.38;;;1.70;;
4021;SDS011;2025;48.260;16.432;2023-08-31T02:21:33;4.57;;;1.42;;
4021;SDS011;2025;48.260;16.432;2023-08-31T02:24:00;4.97;;;1.77;;
4021;SDS011;2025;48.260;16.432;2023-08-31T02:26:28;4.65;;;1.80;;
4021;SDS011;2025;48.260;16.432;2023-08-31T02:28:55;5.20;;;1.77;;
4021;SDS011;2025;48.260;16.432;2023-08-31T02:31:22;4.68;;;1.65;;
4021;SDS011;2025;48.260;16.432;2023-08-31T02:33:50;6.93;;;2.00;;
4021;SDS011;2025;48.260;16.432;2023-08-31T02:36:18;6.15;;;2.10;;
4021;SDS011;2025;48.260;16.432;2023-08-31T02:38:45;5.30;;;1.73;;
4021;SDS011;2025;48.260;16.432;2023-08-31T02:41:14;6.57;;;3.20;;
4021;SDS011;2025;48.260;16.432;2023-08-31T02:43:41;8.23;;;2.63;;
4021;SDS011;2025;48.260;16.432;2023-08-31T02:46:08;6.43;;;2.63;;
4021;SDS011;2025;48.260;16.432;2023-08-31T02:48:35;6.53;;;2.30;;
4021;SDS011;2025;48.260;16.432;2023-08-31T02:51:05;5.50;;;2.50;;
4021;SDS011;2025;48.260;16.432;2023-08-31T02:53:32;5.60;;;2.10;;
4021;SDS011;2025;48.260;16.432;2023-08-31T02:55:59;6.50;;;2.42;;
4021;SDS011;2025;48.260;16.432;2023-08-31T02:58:25;5.25;;;2.03;;
4021;SDS011;2025;48.260;16.432;2023-08-31T03:00:52;5.32;;;2.10;;
4021;SDS011;2025;48.260;16.432;2023-08-31T03:03:20;5.38;;;2.00;;
4021;SDS011;2025;48.260;16.432;2023-08-31T03:05:48;6.18;;;2.38;;
4021;SDS011;2025;48.260;16.432;2023-08-31T03:08:16;5.72;;;2.45;;
4021;SDS011;2025;48.260;16.432;2023-08-31T03:10:43;6.15;;;2.35;;
4021;SDS011;2025;48.260;16.432;2023-08-31T03:13:10;8.20;;;3.05;;
4021;SDS011;2025;48.260;16.432;2023-08-31T03:15:37;7.03;;;2.42;;
4021;SDS011;2025;48.260;16.432;2023-08-31T03:18:04;5.80;;;2.42;;
4021;SDS011;2025;48.260;16.432;2023-08-31T03:20:31;6.32;;;2.42;;
4021;SDS011;2025;48.260;16.432;2023-08-31T03:22:58;6.53;;;2.22;;
4021;SDS011;2025;48.260;16.432;2023-08-31T03:25:26;6.82;;;2.97;;
4021;SDS011;2025;48.260;16.432;2023-08-31T03:27:54;6.15;;;3.03;;
4021;SDS011;2025;48.260;16.432;2023-08-31T03:30:21;5.57;;;2.50;;
4021;SDS011;2025;48.260;16.432;2023-08-31T03:32:48;7.05;;;4.22;;
4021;SDS011;2025;48.260;16.432;2023-08-31T03:35:15;8.20;;;3.05;;
4021;SDS011;2025;48.260;16.432;2023-08-31T03:37:42;7.65;;;3.25;;
4021;SDS011;2025;48.260;16.432;2023-08-31T03:40:10;6.50;;;3.00;;
4021;SDS011;2025;48.260;16.432;2023-08-31T03:42:38;8.43;;;3.28;;
4021;SDS011;2025;48.260;16.432;2023-08-31T03:45:06;7.57;;;3.28;;
4021;SDS011;2025;48.260;16.432;2023-08-31T03:47:33;8.02;;;3.50;;
4021;SDS011;2025;48.260;16.432;2023-08-31T03:50:00;8.70;;;3.85;;
4021;SDS011;2025;48.260;16.432;2023-08-31T03:52:27;8.40;;;3.22;;
4021;SDS011;2025;48.260;16.432;2023-08-31T03:54:54;6.85;;;3.20;;
4021;SDS011;2025;48.260;16.432;2023-08-31T03:57:20;6.60;;;3.13;;
4021;SDS011;2025;48.260;16.432;2023-08-31T03:59:49;8.10;;;3.20;;
4021;SDS011;2025;48.260;16.432;2023-08-31T04:02:16;7.68;;;2.60;;
4021;SDS011;2025;48.260;16.432;2023-08-31T04:04:43;5.85;;;2.67;;
4021;SDS011;2025;48.260;16.432;2023-08-31T04:07:09;6.82;;;2.40;;
4021;SDS011;2025;48.260;16.432;2023-08-31T04:09:36;6.13;;;2.33;;
4021;SDS011;2025;48.260;16.432;2023-08-31T04:12:04;5.70;;;2.25;;
4021;SDS011;2025;48.260;16.432;2023-08-31T04:14:31;5.90;;;2.42;;
4021;SDS011;2025;48.260;16.432;2023-08-31T04:17:00;7.07;;;2.45;;
4021;SDS011;2025;48.260;16.432;2023-08-31T04:19:26;6.07;;;2.05;;
4021;SDS011;2025;48.260;16.432;2023-08-31T04:21:53;6.68;;;2.40;;
4021;SDS011;2025;48.260;16.432;2023-08-31T04:24:20;5.55;;;1.80;;
4021;SDS011;2025;48.260;16.432;2023-08-31T04:26:47;5.05;;;2.13;;
4021;SDS011;2025;48.260;16.432;2023-08-31T04:29:16;5.43;;;2.08;;
4021;SDS011;2025;48.260;16.432;2023-08-31T04:31:43;5.85;;;2.20;;
4021;SDS011;2025;48.260;16.432;2023-08-31T04:34:11;6.00;;;2.28;;
4021;SDS011;2025;48.260;16.432;2023-08-31T04:36:38;5.10;;;1.88;;
4021;SDS011;2025;48.260;16.432;2023-08-31T04:39:05;7.68;;;2.60;;
4021;SDS011;2025;48.260;16.432;2023-08-31T04:41:32;6.53;;;2.45;;
4021;SDS011;2025;48.260;16.432;2023-08-31T04:43:59;6.47;;;2.55;;
4021;SDS011;2025;48.260;16.432;2023-08-31T04:46:26;7.38;;;2.70;;
4021;SDS011;2025;48.260;16.432;2023-08-31T04:48:53;5.80;;;1.90;;
4021;SDS011;2025;48.260;16.432;2023-08-31T04:51:28;6.25;;;4.20;;
4021;SDS011;2025;48.260;16.432;2023-08-31T04:53:57;5.28;;;1.88;;
4021;SDS011;2025;48.260;16.432;2023-08-31T04:56:24;7.30;;;2.33;;
4021;SDS011;2025;48.260;16.432;2023-08-31T04:58:51;5.43;;;3.05;;
4021;SDS011;2025;48.260;16.432;2023-08-31T05:01:18;4.95;;;2.00;;
4021;SDS011;2025;48.260;16.432;2023-08-31T05:03:45;4.97;;;1.77;;
4021;SDS011;2025;48.260;16.432;2023-08-31T05:06:12;6.28;;;2.60;;
4021;SDS011;2025;48.260;16.432;2023-08-31T05:08:40;7.15;;;2.03;;
4021;SDS011;2025;48.260;16.432;2023-08-31T05:11:07;5.20;;;2.35;;
4021;SDS011;2025;48.260;16.432;2023-08-31T05:13:34;6.10;;;1.65;;
4021;SDS011;2025;48.260;16.432;2023-08-31T05:16:02;5.05;;;1.92;;
4021;SDS011;2025;48.260;16.432;2023-08-31T05:18:30;5.65;;;1.88;;
4021;SDS011;2025;48.260;16.432;2023-08-31T05:20:57;5.63;;;1.80;;
4021;SDS011;2025;48.260;16.432;2023-08-31T05:23:23;4.65;;;1.52;;
4021;SDS011;2025;48.260;16.432;2023-08-31T05:25:52;5.38;;;1.35;;
4021;SDS011;2025;48.260;16.432;2023-08-31T05:28:19;4.82;;;1.60;;
4021;SDS011;2025;48.260;16.432;2023-08-31T05:30:47;5.07;;;1.60;;
4021;SDS011;2025;48.260;16.432;2023-08-31T05:33:16;5.47;;;1.42;;
4021;SDS011;2025;48.260;16.432;2023-08-31T05:35:43;4.35;;;1.13;;
4021;SDS011;2025;48.260;16.432;2023-08-31T05:38:10;4.72;;;1.20;;
4021;SDS011;2025;48.260;16.432;2023-08-31T05:40:37;4.43;;;1.50;;
4021;SDS011;2025;48.260;16.432;2023-08-31T05:43:06;5.28;;;1.60;;
4021;SDS011;2025;48.260;16.432;2023-08-31T05:45:33;4.85;;;1.48;;
4021;SDS011;2025;48.260;16.432;2023-08-31T05:48:00;4.82;;;1.83;;
4021;SDS011;2025;48.260;16.432;2023-08-31T05:50:27;5.35;;;1.75;;
4021;SDS011;2025;48.260;16.432;2023-08-31T05:52:55;4.38;;;1.48;;
4021;SDS011;2025;48.260;16.432;2023-08-31T05:55:22;4.25;;;1.35;;
4021;SDS011;2025;48.260;16.432;2023-08-31T05:57:49;5.80;;;1.35;;
4021;SDS011;2025;48.260;16.432;2023-08-31T06:00:18;3.80;;;0.77;;
4021;SDS011;2025;48.260;16.432;2023-08-31T06:02:45;5.03;;;1.10;;
4021;SDS011;2025;48.260;16.432;2023-08-31T06:05:12;5.03;;;1.25;;
4021;SDS011;2025;48.260;16.432;2023-08-31T06:07:41;4.57;;;0.80;;
4021;SDS011;2025;48.260;16.432;2023-08-31T06:10:08;4.28;;;0.82;;
4021;SDS011;2025;48.260;16.432;2023-08-31T06:12:36;4.18;;;0.90;;
4021;SDS011;2025;48.260;16.432;2023-08-31T06:15:03;4.53;;;1.10;;
4021;SDS011;2025;48.260;16.432;2023-08-31T06:17:32;3.50;;;0.95;;
4021;SDS011;2025;48.260;16.432;2023-08-31T06:20:00;4.10;;;0.70;;
4021;SDS011;2025;48.260;16.432;2023-08-31T06:22:30;3.00;;;0.50;;
4021;SDS011;2025;48.260;16.432;2023-08-31T06:24:57;4.20;;;0.50;;
4021;SDS011;2025;48.260;16.432;2023-08-31T06:27:24;3.38;;;0.70;;
4021;SDS011;2025;48.260;16.432;2023-08-31T06:29:51;4.05;;;0.65;;
4021;SDS011;2025;48.260;16.432;2023-08-31T06:32:18;3.95;;;0.73;;
4021;SDS011;2025;48.260;16.432;2023-08-31T06:34:46;3.70;;;0.60;;
4021;SDS011;2025;48.260;16.432;2023-08-31T06:37:13;4.10;;;2.10;;
4021;SDS011;2025;48.260;16.432;2023-08-31T06:39:40;3.60;;;0.60;;
4021;SDS011;2025;48.260;16.432;2023-08-31T06:42:07;3.72;;;0.80;;
4021;SDS011;2025;48.260;16.432;2023-08-31T06:44:34;4.80;;;0.65;;
4021;SDS011;2025;48.260;16.432;2023-08-31T06:47:01;3.40;;;0.45;;
4021;SDS011;2025;48.260;16.432;2023-08-31T06:49:29;4.90;;;0.80;;
4021;SDS011;2025;48.260;16.432;2023-08-31T06:51:59;2.38;;;0.32;;
4021;SDS011;2025;48.260;16.432;2023-08-31T06:54:27;3.60;;;0.60;;
4021;SDS011;2025;48.260;16.432;2023-08-31T06:56:54;4.07;;;0.50;;
4021;SDS011;2025;48.260;16.432;2023-08-31T06:59:21;3.28;;;0.45;;
4021;SDS011;2025;48.260;16.432;2023-08-31T07:01:49;3.97;;;0.40;;
4021;SDS011;2025;48.260;16.432;2023-08-31T07:04:16;4.28;;;0.70;;
4021;SDS011;2025;48.260;16.432;2023-08-31T07:06:42;3.50;;;0.60;;
4021;SDS011;2025;48.260;16.432;2023-08-31T07:09:11;3.72;;;0.77;;
4021;SDS011;2025;48.260;16.432;2023-08-31T07:11:38;3.92;;;0.50;;
4021;SDS011;2025;48.260;16.432;2023-08-31T07:14:05;4.30;;;0.40;;
4021;SDS011;2025;48.260;16.432;2023-08-31T07:16:32;2.72;;;0.57;;
4021;SDS011;2025;48.260;16.432;2023-08-31T07:18:58;3.45;;;0.47;;
4021;SDS011;2025;48.260;16.432;2023-08-31T07:21:25;3.47;;;0.70;;
4021;SDS011;2025;48.260;16.432;2023-08-31T07:23:52;3.33;;;0.60;;
4021;SDS011;2025;48.260;16.432;2023-08-31T07:26:21;2.92;;;0.50;;
4021;SDS011;2025;48.260;16.432;2023-08-31T07:28:48;4.25;;;0.60;;
4021;SDS011;2025;48.260;16.432;2023-08-31T07:31:15;3.53;;;0.70;;
4021;SDS011;2025;48.260;16.432;2023-08-31T07:33:42;2.72;;;0.60;;
4021;SDS011;2025;48.260;16.432;2023-08-31T07:36:09;3.88;;;0.52;;
4021;SDS011;2025;48.260;16.432;2023-08-31T07:38:36;3.42;;;0.77;;
4021;SDS011;2025;48.260;16.432;2023-08-31T07:41:03;3.95;;;0.60;;
4021;SDS011;2025;48.260;16.432;2023-08-31T07:43:32;3.50;;;0.70;;
4021;SDS011;2025;48.260;16.432;2023-08-31T07:45:59;3.83;;;0.73;;
4021;SDS011;2025;48.260;16.432;2023-08-31T07:48:25;3.95;;;0.60;;
4021;SDS011;2025;48.260;16.432;2023-08-31T07:50:52;4.28;;;0.93;;
4021;SDS011;2025;48.260;16.432;2023-08-31T07:53:19;3.05;;;0.80;;
4021;SDS011;2025;48.260;16.432;2023-08-31T07:55:51;3.50;;;0.60;;
4021;SDS011;2025;48.260;16.432;2023-08-31T07:58:19;3.38;;;0.88;;
4021;SDS011;2025;48.260;16.432;2023-08-31T08:00:48;3.30;;;0.60;;
4021;SDS011;2025;48.260;16.432;2023-08-31T08:03:15;3.20;;;0.75;;
4021;SDS011;2025;48.260;16.432;2023-08-31T08:05:42;3.97;;;0.95;;
4021;SDS011;2025;48.260;16.432;2023-08-31T08:08:09;6.88;;;1.50;;
4021;SDS011;2025;48.260;16.432;2023-08-31T08:10:37;3.72;;;1.50;;
4021;SDS011;2025;48.260;16.432;2023-08-31T08:13:04;5.13;;;1.00;;
4021;SDS011;2025;48.260;16.432;2023-08-31T08:15:31;3.38;;;0.80;;
4021;SDS011;2025;48.260;16.432;2023-08-31T08:17:59;5.53;;;0.95;;
4021;SDS011;2025;48.260;16.432;2023-08-31T08:20:27;3.83;;;0.80;;
4021;SDS011;2025;48.260;16.432;2023-08-31T08:22:54;3.25;;;0.68;;
4021;SDS011;2025;48.260;16.432;2023-08-31T08:25:22;3.83;;;0.70;;
4021;SDS011;2025;48.260;16.432;2023-08-31T08:27:50;4.05;;;1.00;;
4021;SDS011;2025;48.260;16.432;2023-08-31T08:30:16;3.50;;;0.90;;
4021;SDS011;2025;48.260;16.432;2023-08-31T08:32:44;4.70;;;0.95;;
4021;SDS011;2025;48.260;16.432;2023-08-31T08:35:13;4.22;;;0.95;;
4021;SDS011;2025;48.260;16.432;2023-08-31T08:37:40;3.90;;;1.30;;
4021;SDS011;2025;48.260;16.432;2023-08-31T08:40:07;5.47;;;0.80;;
4021;SDS011;2025;48.260;16.432;2023-08-31T08:42:38;4.47;;;0.60;;
4021;SDS011;2025;48.260;16.432;2023-08-31T08:45:09;4.30;;;1.00;;
4021;SDS011;2025;48.260;16.432;2023-08-31T08:47:42;4.40;;;0.80;;
4021;SDS011;2025;48.260;16.432;2023-08-31T08:50:10;4.05;;;1.02;;
4021;SDS011;2025;48.260;16.432;2023-08-31T08:52:39;3.67;;;1.05;;
4021;SDS011;2025;48.260;16.432;2023-08-31T08:55:07;5.60;;;1.02;;
4021;SDS011;2025;48.260;16.432;2023-08-31T08:57:35;5.10;;;0.98;;
4021;SDS011;2025;48.260;16.432;2023-08-31T09:00:02;4.45;;;0.77;;
4021;SDS011;2025;48.260;16.432;2023-08-31T09:02:30;3.55;;;0.63;;
4021;SDS011;2025;48.260;16.432;2023-08-31T09:04:57;4.32;;;0.88;;
4021;SDS011;2025;48.260;16.432;2023-08-31T09:07:25;4.15;;;1.08;;
4021;SDS011;2025;48.260;16.432;2023-08-31T09:09:56;4.72;;;0.77;;
4021;SDS011;2025;48.260;16.432;2023-08-31T09:12:24;3.97;;;0.70;;
4021;SDS011;2025;48.260;16.432;2023-08-31T09:15:00;4.28;;;0.73;;
4021;SDS011;2025;48.260;16.432;2023-08-31T09:17:37;3.58;;;0.85;;
4021;SDS011;2025;48.260;16.432;2023-08-31T09:20:05;3.10;;;0.82;;
4021;SDS011;2025;48.260;16.432;2023-08-31T09:22:35;4.88;;;0.73;;
4021;SDS011;2025;48.260;16.432;2023-08-31T09:25:02;3.78;;;0.68;;
4021;SDS011;2025;48.260;16.432;2023-08-31T09:27:30;3.78;;;0.70;;
4021;SDS011;2025;48.260;16.432;2023-08-31T09:29:58;3.78;;;0.50;;
4021;SDS011;2025;48.260;16.432;2023-08-31T09:32:25;5.10;;;0.77;;
4021;SDS011;2025;48.260;16.432;2023-08-31T09:34:52;5.20;;;0.80;;
4021;SDS011;2025;48.260;16.432;2023-08-31T09:37:19;5.03;;;1.33;;
4021;SDS011;2025;48.260;16.432;2023-08-31T09:39:48;3.50;;;0.60;;
4021;SDS011;2025;48.260;16.432;2023-08-31T09:42:15;4.07;;;0.50;;
4021;SDS011;2025;48.260;16.432;2023-08-31T09:44:43;3.83;;;0.93;;
4021;SDS011;2025;48.260;16.432;2023-08-31T09:47:10;4.53;;;0.70;;
4021;SDS011;2025;48.260;16.432;2023-08-31T09:49:39;4.03;;;0.60;;
4021;SDS011;2025;48.260;16.432;2023-08-31T09:52:09;4.35;;;0.45;;
4021;SDS011;2025;48.260;16.432;2023-08-31T09:54:37;4.95;;;0.50;;
4021;SDS011;2025;48.260;16.432;2023-08-31T09:57:07;4.10;;;0.73;;
4021;SDS011;2025;48.260;16.432;2023-08-31T09:59:34;3.00;;;0.43;;
4021;SDS011;2025;48.260;16.432;2023-08-31T10:02:01;4.22;;;0.70;;
4021;SDS011;2025;48.260;16.432;2023-08-31T10:04:29;3.35;;;0.30;;
4021;SDS011;2025;48.260;16.432;2023-08-31T10:06:59;3.88;;;0.50;;
4021;SDS011;2025;48.260;16.432;2023-08-31T10:09:26;3.17;;;0.43;;
4021;SDS011;2025;48.260;16.432;2023-08-31T10:11:54;3.10;;;0.47;;
4021;SDS011;2025;48.260;16.432;2023-08-31T10:14:23;2.47;;;0.30;;
4021;SDS011;2025;48.260;16.432;2023-08-31T10:16:50;3.22;;;0.30;;
4021;SDS011;2025;48.260;16.432;2023-08-31T10:19:18;3.45;;;0.60;;
4021;SDS011;2025;48.260;16.432;2023-08-31T10:21:46;3.45;;;0.73;;
4021;SDS011;2025;48.260;16.432;2023-08-31T10:24:13;3.58;;;0.50;;
4021;SDS011;2025;48.260;16.432;2023-08-31T10:26:40;2.95;;;0.40;;
4021;SDS011;2025;48.260;16.432;2023-08-31T10:29:07;3.17;;;1.17;;
4021;SDS011;2025;48.260;16.432;2023-08-31T10:31:55;3.65;;;0.50;;
4021;SDS011;2025;48.260;16.432;2023-08-31T10:34:36;2.38;;;0.43;;
4021;SDS011;2025;48.260;16.432;2023-08-31T10:37:03;3.90;;;0.65;;
4021;SDS011;2025;48.260;16.432;2023-08-31T10:39:48;2.60;;;0.30;;
4021;SDS011;2025;48.260;16.432;2023-08-31T10:42:15;2.40;;;0.40;;
4021;SDS011;2025;48.260;16.432;2023-08-31T10:44:43;3.00;;;0.40;;
4021;SDS011;2025;48.260;16.432;2023-08-31T10:47:10;3.33;;;0.50;;
4021;SDS011;2025;48.260;16.432;2023-08-31T10:49:37;3.45;;;0.40;;
4021;SDS011;2025;48.260;16.432;2023-08-31T10:52:17;2.90;;;0.32;;
4021;SDS011;2025;48.260;16.432;2023-08-31T10:54:46;2.90;;;0.40;;
4021;SDS011;2025;48.260;16.432;2023-08-31T10:57:13;2.28;;;0.47;;
4021;SDS011;2025;48.260;16.432;2023-08-31T10:59:46;2.83;;;0.47;;
4021;SDS011;2025;48.260;16.432;2023-08-31T11:02:28;1.85;;;0.30;;
4021;SDS011;2025;48.260;16.432;2023-08-31T11:05:08;2.90;;;0.32;;
4021;SDS011;2025;48.260;16.432;2023-08-31T11:07:36;3.53;;;0.32;;
4021;SDS011;2025;48.260;16.432;2023-08-31T11:10:09;2.42;;;0.20;;
4021;SDS011;2025;48.260;16.432;2023-08-31T11:12:37;2.60;;;0.40;;
4021;SDS011;2025;48.260;16.432;2023-08-31T11:15:06;2.70;;;0.32;;
4021;SDS011;2025;48.260;16.432;2023-08-31T11:17:34;3.75;;;0.55;;
4021;SDS011;2025;48.260;16.432;2023-08-31T11:20:05;2.85;;;0.40;;
4021;SDS011;2025;48.260;16.432;2023-08-31T11:22:34;2.65;;;0.30;;
4021;SDS011;2025;48.260;16.432;2023-08-31T11:25:06;3.55;;;0.30;;
4021;SDS011;2025;48.260;16.432;2023-08-31T11:27:34;3.97;;;0.20;;
4021;SDS011;2025;48.260;16.432;2023-08-31T11:30:02;3.88;;;0.40;;
4021;SDS011;2025;48.260;16.432;2023-08-31T11:32:31;3.13;;;0.38;;
4021;SDS011;2025;48.260;16.432;2023-08-31T11:34:58;3.47;;;0.40;;
4021;SDS011;2025;48.260;16.432;2023-08-31T11:37:26;2.85;;;0.47;;
4021;SDS011;2025;48.260;16.432;2023-08-31T11:39:53;3.97;;;0.40;;
4021;SDS011;2025;48.260;16.432;2023-08-31T11:42:20;3.55;;;0.63;;
4021;SDS011;2025;48.260;16.432;2023-08-31T11:44:48;2.67;;;0.50;;
4021;SDS011;2025;48.260;16.432;2023-08-31T11:47:17;2.40;;;0.30;;
4021;SDS011;2025;48.260;16.432;2023-08-31T11:49:47;2.22;;;0.40;;
4021;SDS011;2025;48.260;16.432;2023-08-31T11:52:15;3.30;;;0.30;;
4021;SDS011;2025;48.260;16.432;2023-08-31T11:54:43;2.33;;;0.40;;
4021;SDS011;2025;48.260;16.432;2023-08-31T11:57:11;2.28;;;0.30;;
4021;SDS011;2025;48.260;16.432;2023-08-31T11:59:39;4.07;;;0.45;;
4021;SDS011;2025;48.260;16.432;2023-08-31T12:02:07;3.47;;;0.20;;
4021;SDS011;2025;48.260;16.432;2023-08-31T12:04:41;2.75;;;0.35;;
4021;SDS011;2025;48.260;16.432;2023-08-31T12:07:11;2.95;;;0.43;;
4021;SDS011;2025;48.260;16.432;2023-08-31T12:09:42;2.40;;;0.50;;
4021;SDS011;2025;48.260;16.432;2023-08-31T12:12:09;3.47;;;0.47;;
4021;SDS011;2025;48.260;16.432;2023-08-31T12:14:37;3.28;;;0.40;;
4021;SDS011;2025;48.260;16.432;2023-08-31T12:17:06;2.28;;;0.32;;
4021;SDS011;2025;48.260;16.432;2023-08-31T12:19:36;2.85;;;0.30;;
4021;SDS011;2025;48.260;16.432;2023-08-31T12:22:04;3.72;;;0.30;;
4021;SDS011;2025;48.260;16.432;2023-08-31T12:24:38;2.45;;;0.20;;
4021;SDS011;2025;48.260;16.432;2023-08-31T12:27:06;2.88;;;0.40;;
4021;SDS011;2025;48.260;16.432;2023-08-31T12:29:33;2.45;;;0.32;;
4021;SDS011;2025;48.260;16.432;2023-08-31T12:32:00;3.47;;;0.63;;
4021;SDS011;2025;48.260;16.432;2023-08-31T12:34:27;3.30;;;0.30;;
4021;SDS011;2025;48.260;16.432;2023-08-31T12:36:56;2.45;;;0.40;;
4021;SDS011;2025;48.260;16.432;2023-08-31T12:39:25;2.80;;;0.40;;
4021;SDS011;2025;48.260;16.432;2023-08-31T12:41:53;2.80;;;0.40;;
4021;SDS011;2025;48.260;16.432;2023-08-31T12:44:21;3.97;;;0.35;;
4021;SDS011;2025;48.260;16.432;2023-08-31T12:46:48;3.28;;;0.32;;
4021;SDS011;2025;48.260;16.432;2023-08-31T12:49:15;2.80;;;0.50;;
4021;SDS011;2025;48.260;16.432;2023-08-31T12:51:42;4.38;;;0.40;;
4021;SDS011;2025;48.260;16.432;2023-08-31T12:54:09;2.88;;;0.30;;
4021;SDS011;2025;48.260;16.432;2023-08-31T12:56:36;2.50;;;0.30;;
4021;SDS011;2025;48.260;16.432;2023-08-31T12:59:04;4.45;;;0.22;;
4021;SDS011;2025;48.260;16.432;2023-08-31T13:01:32;4.75;;;0.80;;
4021;SDS011;2025;48.260;16.432;2023-08-31T13:03:59;5.30;;;0.60;;
4021;SDS011;2025;48.260;16.432;2023-08-31T13:06:26;2.90;;;0.40;;
4021;SDS011;2025;48.260;16.432;2023-08-31T13:08:53;2.92;;;0.20;;
4021;SDS011;2025;48.260;16.432;2023-08-31T13:11:20;2.60;;;0.50;;
4021;SDS011;2025;48.260;16.432;2023-08-31T13:13:49;3.20;;;0.38;;
4021;SDS011;2025;48.260;16.432;2023-08-31T13:16:19;2.40;;;0.20;;
4021;SDS011;2025;48.260;16.432;2023-08-31T13:18:49;3.03;;;0.40;;
4021;SDS011;2025;48.260;16.432;2023-08-31T13:21:16;2.67;;;0.40;;
4021;SDS011;2025;48.260;16.432;2023-08-31T13:23:43;2.78;;;0.52;;
4021;SDS011;2025;48.260;16.432;2023-08-31T13:26:10;2.97;;;0.45;;
4021;SDS011;2025;48.260;16.432;2023-08-31T13:28:37;2.55;;;0.35;;
4021;SDS011;2025;48.260;16.432;2023-08-31T13:31:04;3.85;;;0.30;;
4021;SDS011;2025;48.260;16.432;2023-08-31T13:33:32;3.20;;;0.43;;
4021;SDS011;2025;48.260;16.432;2023-08-31T13:35:59;4.35;;;0.82;;
4021;SDS011;2025;48.260;16.432;2023-08-31T13:38:26;4.57;;;0.52;;
4021;SDS011;2025;48.260;16.432;2023-08-31T13:40:54;3.63;;;0.40;;
4021;SDS011;2025;48.260;16.432;2023-08-31T13:43:22;3.17;;;0.32;;
4021;SDS011;2025;48.260;16.432;2023-08-31T13:45:49;2.55;;;0.60;;
4021;SDS011;2025;48.260;16.432;2023-08-31T13:48:16;2.58;;;0.43;;
4021;SDS011;2025;48.260;16.432;2023-08-31T13:50:44;2.75;;;0.47;;
4021;SDS011;2025;48.260;16.432;2023-08-31T13:53:12;4.53;;;0.43;;
4021;SDS011;2025;48.260;16.432;2023-08-31T13:55:39;2.85;;;0.32;;
4021;SDS011;2025;48.260;16.432;2023-08-31T13:58:07;3.30;;;0.40;;
4021;SDS011;2025;48.260;16.432;2023-08-31T14:00:34;3.53;;;0.50;;
4021;SDS011;2025;48.260;16.432;2023-08-31T14:03:03;2.55;;;0.40;;
4021;SDS011;2025;48.260;16.432;2023-08-31T14:05:30;3.97;;;0.28;;
4021;SDS011;2025;48.260;16.432;2023-08-31T14:07:59;2.70;;;0.50;;
4021;SDS011;2025;48.260;16.432;2023-08-31T14:10:29;3.28;;;0.40;;
4021;SDS011;2025;48.260;16.432;2023-08-31T14:12:57;3.83;;;0.70;;
4021;SDS011;2025;48.260;16.432;2023-08-31T14:15:24;2.55;;;0.47;;
4021;SDS011;2025;48.260;16.432;2023-08-31T14:17:51;4.20;;;0.40;;
4021;SDS011;2025;48.260;16.432;2023-08-31T14:20:18;2.97;;;0.45;;
4021;SDS011;2025;48.260;16.432;2023-08-31T14:22:45;3.08;;;0.40;;
4021;SDS011;2025;48.260;16.432;2023-08-31T14:25:14;2.45;;;0.30;;
4021;SDS011;2025;48.260;16.432;2023-08-31T14:27:41;3.08;;;0.63;;
4021;SDS011;2025;48.260;16.432;2023-08-31T14:30:08;3.00;;;0.30;;
4021;SDS011;2025;48.260;16.432;2023-08-31T14:32:36;3.00;;;0.30;;
4021;SDS011;2025;48.260;16.432;2023-08-31T14:35:03;3.85;;;0.32;;
4021;SDS011;2025;48.260;16.432;2023-08-31T14:37:31;3.78;;;0.52;;
4021;SDS011;2025;48.260;16.432;2023-08-31T14:39:58;3.15;;;0.20;;
4021;SDS011;2025;48.260;16.432;2023-08-31T14:42:26;3.17;;;0.45;;
4021;SDS011;2025;48.260;16.432;2023-08-31T14:44:53;2.97;;;0.40;;
4021;SDS011;2025;48.260;16.432;2023-08-31T14:47:20;3.20;;;0.65;;
4021;SDS011;2025;48.260;16.432;2023-08-31T14:49:47;3.17;;;1.05;;
4021;SDS011;2025;48.260;16.432;2023-08-31T14:52:14;2.80;;;0.57;;
4021;SDS011;2025;48.260;16.432;2023-08-31T14:54:41;2.42;;;0.28;;
4021;SDS011;2025;48.260;16.432;2023-08-31T14:57:08;4.47;;;0.57;;
4021;SDS011;2025;48.260;16.432;2023-08-31T14:59:36;3.42;;;0.65;;
4021;SDS011;2025;48.260;16.432;2023-08-31T15:02:03;3.90;;;0.55;;
4021;SDS011;2025;48.260;16.432;2023-08-31T15:04:31;3.72;;;0.45;;
4021;SDS011;2025;48.260;16.432;2023-08-31T15:06:58;3.60;;;0.47;;